createdAt,value
2023-03-16T00:02:56.224Z,100576.09
2023-03-16T00:08:09.932Z,100574.72
2023-03-16T00:13:53.888Z,100578.00
2023-03-16T00:19:57.892Z,100582.76
2023-03-16T00:25:33.742Z,100591.04
2023-03-16T00:31:56.772Z,100597.09
2023-03-16T00:37:51.548Z,100601.70
2023-03-16T00:42:58.024Z,100606.48
2023-03-16T00:48:35.892Z,100606.88
2023-03-16T00:54:18.564Z,100610.16
2023-03-16T00:59:22.199Z,100607.92
2023-03-16T01:04:36.948Z,100602.16
2023-03-16T01:10:04.354Z,100608.00
2023-03-16T01:15:31.259Z,100610.14
2023-03-16T01:20:34.879Z,100618.21
2023-03-16T01:25:43.268Z,100622.79
2023-03-16T01:31:07.485Z,100623.27
2023-03-16T01:36:29.332Z,100629.38
2023-03-16T01:41:42.085Z,100630.64
2023-03-16T01:46:57.339Z,100636.91
2023-03-16T01:52:19.393Z,100636.46
2023-03-16T01:57:46.854Z,100634.35
2023-03-16T02:02:56.638Z,100636.69
2023-03-16T02:08:10.715Z,100640.52
2023-03-16T02:13:38.668Z,100639.54
2023-03-16T02:18:44.788Z,100646.70
2023-03-16T02:23:50.866Z,100642.79
2023-03-16T02:30:01.584Z,100640.39
2023-03-16T02:35:10.537Z,100650.98
2023-03-16T02:41:14.806Z,100653.34
2023-03-16T02:46:21.773Z,100664.67
2023-03-16T02:51:39.630Z,100667.78
2023-03-16T02:56:46.091Z,100674.02
2023-03-16T03:01:53.319Z,100675.23
2023-03-16T03:07:21.706Z,100680.04
2023-03-16T03:12:38.670Z,100687.02
2023-03-16T03:18:34.185Z,100688.79
2023-03-16T03:23:38.427Z,100691.86
2023-03-16T03:29:02.567Z,100704.65
2023-03-16T03:34:19.199Z,100704.30
2023-03-16T03:39:22.920Z,100711.76
2023-03-16T03:44:27.207Z,100716.84
2023-03-16T03:49:33.362Z,100720.30
2023-03-16T03:54:59.812Z,100723.45
2023-03-16T04:01:13.869Z,100738.46
2023-03-16T04:06:38.020Z,100739.85
2023-03-16T04:11:42.518Z,100739.92
2023-03-16T04:17:06.529Z,100751.01
2023-03-16T04:22:19.347Z,100756.25
2023-03-16T04:27:37.392Z,100753.84
2023-03-16T04:32:41.891Z,100753.69
2023-03-16T04:38:08.924Z,100751.31
2023-03-16T04:43:17.474Z,100756.73
2023-03-16T04:48:56.112Z,100763.80
2023-03-16T04:53:59.691Z,100764.77
2023-03-16T04:59:10.976Z,100773.02
2023-03-16T05:04:41.229Z,100783.80
2023-03-16T05:10:05.212Z,100790.52
2023-03-16T05:15:09.889Z,100783.95
2023-03-16T05:20:16.851Z,100784.19
2023-03-16T05:25:25.311Z,100787.30
2023-03-16T05:30:53.147Z,100791.25
2023-03-16T05:36:10.356Z,100796.17
2023-03-16T05:41:15.023Z,100802.15
2023-03-16T05:46:38.593Z,100796.38
2023-03-16T05:51:42.202Z,100793.52
2023-03-16T05:56:55.855Z,100796.37
2023-03-16T06:02:00.062Z,100799.00
2023-03-16T06:07:06.065Z,100799.83
2023-03-16T06:12:10.947Z,100804.67
2023-03-16T06:17:15.338Z,100809.92
2023-03-16T06:22:19.395Z,100808.92
2023-03-16T06:27:26.581Z,100810.03
2023-03-16T06:32:45.479Z,100812.09
2023-03-16T06:37:48.842Z,100813.84
2023-03-16T06:43:00.345Z,100811.96
2023-03-16T06:48:04.207Z,100817.21
2023-03-16T06:53:08.244Z,100821.92
2023-03-16T06:58:12.592Z,100829.21
2023-03-16T07:03:16.405Z,100837.08
2023-03-16T07:08:24.508Z,100845.24
2023-03-16T07:13:29.098Z,100850.88
2023-03-16T07:18:33.638Z,100852.41
2023-03-16T07:23:38.570Z,100859.34
2023-03-16T07:28:45.926Z,100861.93
2023-03-16T07:33:49.571Z,100858.38
2023-03-16T07:38:59.781Z,100863.11
2023-03-16T07:44:04.173Z,100865.81
2023-03-16T07:49:10.870Z,100864.94
2023-03-16T07:54:15.684Z,100868.92
2023-03-16T07:59:21.189Z,100869.48
2023-03-16T08:04:25.256Z,100866.48
2023-03-16T08:09:35.957Z,100867.89
2023-03-16T08:14:47.633Z,100867.73
2023-03-16T08:20:11.014Z,100868.61
2023-03-16T08:25:24.077Z,100871.38
2023-03-16T08:30:51.173Z,100873.80
2023-03-16T08:36:19.333Z,100878.13
2023-03-16T08:41:46.060Z,100880.89
2023-03-16T08:47:16.327Z,100889.55
2023-03-16T08:52:23.139Z,100886.77
2023-03-16T08:57:27.602Z,100891.80
2023-03-16T09:02:31.937Z,100900.81
2023-03-16T09:07:36.501Z,100905.83
2023-03-16T09:12:41.086Z,100906.87
2023-03-16T09:17:50.603Z,100906.35
2023-03-16T09:22:57.831Z,100900.81
2023-03-16T09:28:12.784Z,100901.48
2023-03-16T09:33:18.036Z,100897.27
2023-03-16T09:38:25.538Z,100900.35
2023-03-16T09:43:49.458Z,100898.19
2023-03-16T09:49:01.288Z,100900.73
2023-03-16T09:54:19.963Z,100897.04
2023-03-16T09:59:25.614Z,100901.30
2023-03-16T10:04:35.739Z,100903.88
2023-03-16T10:09:52.818Z,100913.75
2023-03-16T10:15:27.536Z,100910.46
2023-03-16T10:20:34.546Z,100910.05
2023-03-16T10:26:14.820Z,100915.23
2023-03-16T10:31:23.321Z,100920.01
2023-03-16T10:36:35.962Z,100915.36
2023-03-16T10:41:50.589Z,100913.37
2023-03-16T10:47:05.019Z,100921.95
2023-03-16T10:52:14.534Z,100922.48
2023-03-16T10:57:20.987Z,100926.30
2023-03-16T11:02:31.998Z,100925.84
2023-03-16T11:07:36.574Z,100923.27
2023-03-16T11:13:02.434Z,100925.35
2023-03-16T11:18:25.144Z,100920.17
2023-03-16T11:23:34.418Z,100921.87
2023-03-16T11:28:43.783Z,100923.25
2023-03-16T11:33:49.311Z,100920.84
2023-03-16T11:39:02.329Z,100918.06
2023-03-16T11:44:23.998Z,100918.40
2023-03-16T11:50:02.371Z,100921.67
2023-03-16T11:55:52.128Z,100921.30
2023-03-16T12:01:28.022Z,100917.30
2023-03-16T12:06:47.213Z,100921.58
2023-03-16T12:12:34.637Z,100918.08
2023-03-16T12:17:45.867Z,100921.34
2023-03-16T12:22:57.513Z,100920.14
2023-03-16T12:28:10.604Z,100924.81
2023-03-16T12:33:29.981Z,100925.32
2023-03-16T12:38:44.674Z,100928.79
2023-03-16T12:44:02.165Z,100929.02
2023-03-16T12:49:09.988Z,100931.83
2023-03-16T12:54:25.555Z,100936.20
2023-03-16T12:59:45.787Z,100931.91
2023-03-16T13:05:00.960Z,100932.27
2023-03-16T13:10:12.443Z,100936.07
2023-03-16T13:15:47.685Z,100935.70
2023-03-16T13:21:20.337Z,100937.46
2023-03-16T13:26:45.567Z,100939.73
2023-03-16T13:31:52.816Z,100934.69
2023-03-16T13:37:11.798Z,100940.41
2023-03-16T13:42:19.517Z,100939.71
2023-03-16T13:47:27.796Z,100940.73
2023-03-16T13:52:34.908Z,100939.98
2023-03-16T13:58:01.882Z,100937.88
2023-03-16T14:03:17.846Z,100938.09
2023-03-16T14:08:24.267Z,100942.63
2023-03-16T14:13:33.064Z,100943.70
2023-03-16T14:18:41.781Z,100949.60
2023-03-16T14:23:56.388Z,100953.42
2023-03-16T14:29:25.073Z,100952.75
2023-03-16T14:34:36.562Z,100954.48
2023-03-16T14:39:45.404Z,100953.26
2023-03-16T14:44:52.087Z,100951.52
2023-03-16T14:49:57.807Z,100954.98
2023-03-16T14:55:19.279Z,100957.74
2023-03-16T15:00:23.202Z,100963.48
2023-03-16T15:05:39.088Z,100967.13
2023-03-16T15:10:44.442Z,100975.09
2023-03-16T15:15:48.794Z,100976.66
2023-03-16T15:20:54.108Z,100975.80
2023-03-16T15:26:03.015Z,100977.88
2023-03-16T15:31:07.115Z,100975.63
2023-03-16T15:36:33.959Z,100974.05
2023-03-16T15:41:48.184Z,100975.63
2023-03-16T15:46:51.803Z,100974.41
2023-03-16T15:51:55.243Z,100974.41
2023-03-16T15:56:59.319Z,100984.11
2023-03-16T16:02:09.100Z,100983.42
2023-03-16T16:07:15.928Z,100995.54
2023-03-16T16:12:21.621Z,101002.29
2023-03-16T16:17:48.258Z,101007.81
2023-03-16T16:23:05.734Z,101014.88
2023-03-16T16:28:31.927Z,101025.20
2023-03-16T16:33:37.756Z,101029.82
2023-03-16T16:38:41.463Z,101034.45
2023-03-16T16:44:18.911Z,101042.68
2023-03-16T16:49:39.338Z,101046.93
2023-03-16T16:54:56.274Z,101055.33
2023-03-16T17:00:00.379Z,101052.64
2023-03-16T17:05:06.749Z,101059.53
2023-03-16T17:10:16.531Z,101065.06
2023-03-16T17:15:40.763Z,101068.14
2023-03-16T17:20:54.491Z,101066.56
2023-03-16T17:26:01.178Z,101070.48
2023-03-16T17:31:05.435Z,101078.18
2023-03-16T17:37:03.009Z,101084.67
2023-03-16T17:42:34.910Z,101084.45
2023-03-16T17:47:39.687Z,101085.50
2023-03-16T17:53:22.379Z,101093.36
2023-03-16T17:58:47.043Z,101098.27
2023-03-16T18:03:53.346Z,101101.49
2023-03-16T18:09:18.873Z,101102.27
2023-03-16T18:14:36.122Z,101110.13
2023-03-16T18:19:40.107Z,101111.86
2023-03-16T18:24:54.922Z,101119.24
2023-03-16T18:30:08.776Z,101127.61
2023-03-16T18:35:18.087Z,101124.90
2023-03-16T18:40:25.913Z,101134.20
2023-03-16T18:45:32.560Z,101133.41
2023-03-16T18:50:50.997Z,101134.91
2023-03-16T18:56:07.196Z,101144.35
2023-03-16T19:01:27.233Z,101146.84
2023-03-16T19:06:35.851Z,101147.21
2023-03-16T19:11:52.753Z,101144.79
2023-03-16T19:16:59.959Z,101147.67
2023-03-16T19:22:15.416Z,101154.67
2023-03-16T19:27:55.825Z,101165.38
2023-03-16T19:33:12.845Z,101170.98
2023-03-16T19:38:50.439Z,101173.39
2023-03-16T19:44:34.564Z,101178.17
2023-03-16T19:49:43.547Z,101181.93
2023-03-16T19:55:13.786Z,101177.61
2023-03-16T20:00:31.106Z,101185.33
2023-03-16T20:05:40.479Z,101185.54
2023-03-16T20:10:44.209Z,101188.34
2023-03-16T20:16:21.545Z,101188.19
2023-03-16T20:21:48.188Z,101184.54
2023-03-16T20:27:13.135Z,101191.84
2023-03-16T20:32:25.054Z,101194.52
2023-03-16T20:37:31.128Z,101192.56
2023-03-16T20:42:47.455Z,101194.73
2023-03-16T20:48:22.632Z,101197.95
2023-03-16T20:53:57.654Z,101196.36
2023-03-16T20:59:21.964Z,101195.42
2023-03-16T21:04:36.827Z,101191.34
2023-03-16T21:10:03.827Z,101191.81
2023-03-16T21:15:26.581Z,101195.57
2023-03-16T21:20:36.035Z,101198.34
2023-03-16T21:26:12.052Z,101204.31
2023-03-16T21:31:19.767Z,101205.44
2023-03-16T21:36:27.052Z,101206.36
2023-03-16T21:41:30.493Z,101210.02
2023-03-16T21:46:57.374Z,101211.41
2023-03-16T21:52:02.410Z,101209.66
2023-03-16T21:57:15.369Z,101211.92
2023-03-16T22:02:24.751Z,101210.78
2023-03-16T22:07:28.466Z,101205.61
2023-03-16T22:12:34.813Z,101207.46
2023-03-16T22:17:43.250Z,101210.30
2023-03-16T22:22:58.932Z,101217.94
2023-03-16T22:28:25.930Z,101215.50
2023-03-16T22:33:33.062Z,101213.07
2023-03-16T22:38:36.737Z,101207.20
2023-03-16T22:43:48.917Z,101212.29
2023-03-16T22:48:56.313Z,101211.42
2023-03-16T22:54:23.872Z,101216.32
2023-03-16T22:59:51.272Z,101219.41
2023-03-16T23:05:00.731Z,101223.78
2023-03-16T23:10:04.711Z,101226.02
2023-03-16T23:15:24.081Z,101236.21
2023-03-16T23:20:48.773Z,101232.30
2023-03-16T23:26:40.206Z,101231.60
2023-03-16T23:32:54.344Z,101244.89
2023-03-16T23:38:50.696Z,101248.34
2023-03-16T23:44:05.845Z,101252.91
2023-03-16T23:49:19.496Z,101258.44
2023-03-16T23:54:29.842Z,101254.67
2023-03-16T23:59:33.356Z,101259.30
